createdAt,value
2022-10-17T00:01:06.137Z,54.85
2022-10-17T00:03:34.419Z,55.28
2022-10-17T00:06:07.057Z,55.55
2022-10-17T00:08:35.165Z,55.85
2022-10-17T00:11:06.265Z,55.60
2022-10-17T00:13:35.148Z,55.29
2022-10-17T00:16:03.295Z,55.45
2022-10-17T00:18:33.793Z,55.37
2022-10-17T00:21:01.862Z,55.45
2022-10-17T00:23:30.574Z,55.65
2022-10-17T00:26:02.789Z,55.84
2022-10-17T00:28:31.065Z,55.97
2022-10-17T00:31:00.203Z,56.09
2022-10-17T00:33:29.078Z,56.20
2022-10-17T00:36:06.393Z,55.86
2022-10-17T00:38:34.818Z,56.02
2022-10-17T00:41:03.193Z,55.67
2022-10-17T00:43:33.152Z,55.27
2022-10-17T00:46:01.217Z,55.01
2022-10-17T00:48:29.521Z,54.57
2022-10-17T00:50:57.778Z,54.67
2022-10-17T00:53:27.362Z,54.43
2022-10-17T00:55:55.808Z,54.41
2022-10-17T00:58:24.059Z,54.31
2022-10-17T01:00:52.145Z,54.57
2022-10-17T01:03:20.283Z,54.57
2022-10-17T01:05:48.708Z,54.57
2022-10-17T01:08:17.049Z,54.95
2022-10-17T01:10:58.688Z,55.21
2022-10-17T01:13:31.709Z,55.53
2022-10-17T01:16:11.311Z,55.70
2022-10-17T01:18:52.609Z,55.71
2022-10-17T01:21:41.422Z,56.06
2022-10-17T01:24:38.395Z,55.88
2022-10-17T01:27:30.749Z,55.69
2022-10-17T01:30:33.593Z,55.65
2022-10-17T01:33:10.597Z,55.64
2022-10-17T01:35:43.170Z,55.61
2022-10-17T01:38:15.990Z,55.36
2022-10-17T01:40:48.982Z,55.07
2022-10-17T01:43:22.733Z,54.73
2022-10-17T01:45:54.808Z,54.77
2022-10-17T01:48:28.194Z,54.58
2022-10-17T01:51:02.795Z,54.62
2022-10-17T01:53:35.108Z,54.75
2022-10-17T01:56:07.768Z,54.44
2022-10-17T01:58:42.817Z,54.56
2022-10-17T02:01:13.577Z,54.07
2022-10-17T02:03:45.091Z,53.47
2022-10-17T02:06:13.418Z,53.39
2022-10-17T02:08:43.380Z,53.34
2022-10-17T02:11:16.539Z,53.34
2022-10-17T02:14:07.771Z,53.18
2022-10-17T02:16:40.195Z,52.98
2022-10-17T02:19:32.093Z,53.18
2022-10-17T02:22:13.526Z,53.26
2022-10-17T02:24:49.133Z,53.34
2022-10-17T02:27:26.409Z,53.86
2022-10-17T02:30:02.706Z,53.96
2022-10-17T02:32:38.601Z,53.96
2022-10-17T02:35:12.430Z,54.12
2022-10-17T02:37:43.264Z,54.46
2022-10-17T02:40:14.839Z,54.95
2022-10-17T02:42:46.265Z,54.82
2022-10-17T02:45:15.979Z,55.49
2022-10-17T02:47:52.556Z,55.57
2022-10-17T02:50:25.734Z,55.67
2022-10-17T02:52:57.912Z,56.25
2022-10-17T02:55:31.518Z,56.55
2022-10-17T02:58:04.007Z,56.47
2022-10-17T03:00:33.937Z,56.89
2022-10-17T03:03:02.224Z,57.30
2022-10-17T03:05:31.631Z,58.00
2022-10-17T03:07:59.728Z,58.52
2022-10-17T03:10:27.891Z,58.95
2022-10-17T03:12:55.957Z,59.66
2022-10-17T03:15:24.015Z,59.74
2022-10-17T03:17:52.120Z,59.75
2022-10-17T03:20:20.344Z,59.41
2022-10-17T03:22:49.843Z,59.06
2022-10-17T03:25:17.929Z,59.09
2022-10-17T03:27:46.197Z,58.29
2022-10-17T03:30:14.475Z,58.00
2022-10-17T03:32:42.511Z,57.52
2022-10-17T03:35:14.841Z,56.38
2022-10-17T03:37:43.358Z,56.77
2022-10-17T03:40:13.121Z,57.73
2022-10-17T03:42:41.212Z,57.56
2022-10-17T03:45:09.874Z,57.67
2022-10-17T03:47:38.155Z,57.09
2022-10-17T03:50:07.570Z,57.56
2022-10-17T03:52:35.613Z,57.21
2022-10-17T03:55:03.661Z,57.11
2022-10-17T03:57:33.154Z,58.19
2022-10-17T04:00:01.396Z,57.52
2022-10-17T04:02:29.422Z,57.48
2022-10-17T04:04:57.564Z,57.12
2022-10-17T04:09:54.768Z,56.81
2022-10-17T04:12:22.859Z,57.85
2022-10-17T04:14:52.453Z,58.43
2022-10-17T04:17:20.504Z,58.12
2022-10-17T04:19:50.432Z,57.07
2022-10-17T04:22:18.523Z,57.50
2022-10-17T04:24:46.651Z,57.66
2022-10-17T04:27:14.961Z,57.39
2022-10-17T04:29:44.047Z,56.46
2022-10-17T04:32:13.459Z,56.27
2022-10-17T04:34:41.743Z,56.76
2022-10-17T04:37:09.801Z,57.96
2022-10-17T04:39:37.889Z,57.20
2022-10-17T04:42:05.953Z,57.56
2022-10-17T04:44:35.609Z,57.82
2022-10-17T04:47:03.740Z,58.31
2022-10-17T04:49:33.188Z,58.15
2022-10-17T04:52:01.316Z,57.61
2022-10-17T04:54:29.391Z,57.68
2022-10-17T04:56:57.476Z,58.54
2022-10-17T04:59:25.874Z,58.64
2022-10-17T05:01:54.145Z,58.73
2022-10-17T05:04:24.717Z,59.59
2022-10-17T05:06:54.690Z,59.95
2022-10-17T05:09:22.723Z,60.37
2022-10-17T05:11:50.937Z,60.62
2022-10-17T05:14:18.999Z,60.37
2022-10-17T05:16:47.135Z,60.31
2022-10-17T05:19:15.541Z,60.75
2022-10-17T05:21:43.652Z,60.31
2022-10-17T05:24:15.626Z,60.54
2022-10-17T05:26:43.840Z,60.68
2022-10-17T05:29:12.191Z,61.51
2022-10-17T05:31:40.315Z,62.52
2022-10-17T05:34:11.542Z,62.62
2022-10-17T05:36:42.032Z,62.21
2022-10-17T05:39:10.200Z,62.85
2022-10-17T05:41:39.675Z,63.12
2022-10-17T05:44:07.787Z,64.02
2022-10-17T05:46:35.938Z,63.78
2022-10-17T05:49:14.684Z,65.30
2022-10-17T05:51:52.153Z,65.82
2022-10-17T05:54:20.310Z,66.31
2022-10-17T05:56:53.081Z,65.91
2022-10-17T05:59:21.312Z,65.77
2022-10-17T06:01:49.531Z,65.23
2022-10-17T06:04:17.916Z,64.70
2022-10-17T06:06:46.136Z,65.51
2022-10-17T06:09:14.345Z,66.84
2022-10-17T06:11:42.359Z,67.49
2022-10-17T06:14:11.934Z,68.19
2022-10-17T06:16:40.007Z,68.08
2022-10-17T06:19:08.103Z,67.99
2022-10-17T06:21:37.898Z,67.70
2022-10-17T06:24:06.212Z,67.23
2022-10-17T06:26:34.854Z,67.70
2022-10-17T06:29:03.086Z,67.81
2022-10-17T06:31:32.623Z,67.46
2022-10-17T06:34:00.689Z,66.62
2022-10-17T06:36:30.720Z,66.58
2022-10-17T06:38:58.794Z,66.75
2022-10-17T06:41:26.899Z,66.67
2022-10-17T06:43:55.157Z,66.66
2022-10-17T06:46:25.614Z,66.04
2022-10-17T06:48:55.165Z,65.92
2022-10-17T06:51:23.244Z,65.65
2022-10-17T06:53:51.536Z,65.03
2022-10-17T06:56:19.591Z,64.19
2022-10-17T06:58:49.554Z,64.27
2022-10-17T07:01:17.641Z,63.98
2022-10-17T07:03:50.113Z,63.88
2022-10-17T07:06:19.756Z,63.57
2022-10-17T07:08:51.665Z,63.25
2022-10-17T07:11:22.721Z,63.17
2022-10-17T07:13:51.289Z,62.81
2022-10-17T07:16:19.494Z,62.70
2022-10-17T07:18:50.460Z,63.19
2022-10-17T07:21:20.075Z,62.50
2022-10-17T07:23:48.130Z,62.37
2022-10-17T07:26:18.419Z,62.27
2022-10-17T07:28:48.791Z,62.03
2022-10-17T07:31:19.485Z,62.25
2022-10-17T07:33:47.896Z,61.53
2022-10-17T07:36:16.869Z,61.52
2022-10-17T07:38:46.360Z,61.42
2022-10-17T07:41:19.216Z,61.33
2022-10-17T07:43:49.985Z,60.74
2022-10-17T07:46:19.214Z,60.71
2022-10-17T07:48:47.320Z,60.56
2022-10-17T07:51:15.386Z,60.64
2022-10-17T07:53:47.962Z,59.77
2022-10-17T07:56:18.862Z,58.06
2022-10-17T07:58:48.400Z,58.79
2022-10-17T08:01:17.792Z,60.26
2022-10-17T08:03:48.613Z,58.72
2022-10-17T08:06:16.840Z,57.26
2022-10-17T08:08:45.618Z,57.48
2022-10-17T08:11:16.038Z,58.59
2022-10-17T08:13:45.628Z,57.87
2022-10-17T08:16:14.538Z,59.60
2022-10-17T08:18:44.253Z,59.34
2022-10-17T08:21:14.549Z,60.25
2022-10-17T08:23:42.700Z,60.13
2022-10-17T08:26:13.633Z,59.93
2022-10-17T08:28:42.514Z,60.25
2022-10-17T08:31:14.008Z,60.96
2022-10-17T08:33:42.786Z,60.04
2022-10-17T08:36:13.606Z,61.42
2022-10-17T08:38:43.717Z,61.25
2022-10-17T08:41:19.012Z,59.93
2022-10-17T08:44:04.027Z,61.12
2022-10-17T08:46:36.901Z,60.09
2022-10-17T08:49:12.262Z,59.83
2022-10-17T08:51:45.951Z,59.95
2022-10-17T08:54:19.135Z,59.30
2022-10-17T08:56:51.334Z,59.69
2022-10-17T08:59:21.611Z,59.62
2022-10-17T09:01:56.347Z,58.48
2022-10-17T09:04:48.896Z,59.37
2022-10-17T09:07:23.627Z,58.99
2022-10-17T09:09:58.986Z,56.89
2022-10-17T09:12:35.770Z,56.87
2022-10-17T09:15:32.483Z,56.99
2022-10-17T09:18:08.950Z,55.77
2022-10-17T09:20:41.663Z,55.27
2022-10-17T09:23:15.015Z,55.30
2022-10-17T09:25:45.308Z,54.31
2022-10-17T09:28:19.540Z,55.73
2022-10-17T09:30:51.716Z,55.14
2022-10-17T09:33:34.630Z,55.85
2022-10-17T09:36:05.797Z,55.78
2022-10-17T09:38:40.893Z,56.21
2022-10-17T09:41:42.942Z,56.21
2022-10-17T09:44:25.252Z,55.88
2022-10-17T09:47:10.140Z,54.80
2022-10-17T09:49:41.857Z,55.19
2022-10-17T09:52:15.719Z,55.03
2022-10-17T09:54:46.791Z,54.53
2022-10-17T09:57:16.472Z,55.60
2022-10-17T09:59:46.478Z,55.76
2022-10-17T10:02:21.172Z,55.22
2022-10-17T10:05:07.059Z,55.81
2022-10-17T10:07:38.529Z,55.89
2022-10-17T10:10:24.162Z,55.46
2022-10-17T10:13:05.658Z,55.60
2022-10-17T10:15:37.841Z,56.43
2022-10-17T10:21:11.173Z,54.58
2022-10-17T10:23:41.271Z,53.67
2022-10-17T10:26:22.957Z,55.96
2022-10-17T10:29:01.595Z,56.04
2022-10-17T10:31:33.490Z,57.68
2022-10-17T10:34:04.291Z,56.15
2022-10-17T10:36:48.388Z,55.76
2022-10-17T10:39:36.111Z,55.59
2022-10-17T10:42:08.048Z,55.57
2022-10-17T10:44:40.749Z,56.75
2022-10-17T10:47:15.869Z,56.12
2022-10-17T10:49:44.513Z,56.80
2022-10-17T10:52:24.024Z,56.61
2022-10-17T10:54:59.250Z,58.81
2022-10-17T10:57:32.202Z,59.62
2022-10-17T11:00:08.287Z,58.94
2022-10-17T11:02:41.644Z,57.84
2022-10-17T11:05:16.838Z,57.21
2022-10-17T11:07:52.493Z,57.16
2022-10-17T11:10:26.644Z,56.73
2022-10-17T11:13:01.422Z,58.39
2022-10-17T11:15:37.059Z,59.04
2022-10-17T11:18:07.984Z,58.83
2022-10-17T11:20:45.939Z,57.92
2022-10-17T11:23:21.727Z,56.90
2022-10-17T11:25:52.303Z,56.17
2022-10-17T11:28:22.700Z,56.68
2022-10-17T11:30:56.559Z,56.83
2022-10-17T11:33:30.976Z,56.61
2022-10-17T11:36:04.739Z,57.71
2022-10-17T11:38:43.157Z,57.77
2022-10-17T11:41:16.398Z,57.36
2022-10-17T11:43:51.422Z,55.35
2022-10-17T11:46:24.469Z,57.05
2022-10-17T11:49:15.042Z,57.08
2022-10-17T11:52:05.939Z,58.12
2022-10-17T11:54:40.498Z,55.80
2022-10-17T11:57:32.746Z,56.62
2022-10-17T12:00:20.551Z,58.35
2022-10-17T12:02:59.066Z,58.65
2022-10-17T12:05:34.889Z,58.77
2022-10-17T12:08:10.843Z,58.86
2022-10-17T12:11:01.942Z,59.24
2022-10-17T12:13:51.976Z,58.49
2022-10-17T12:16:46.860Z,58.08
2022-10-17T12:19:28.595Z,58.61
2022-10-17T12:21:59.159Z,58.67
2022-10-17T12:24:42.318Z,59.15
2022-10-17T12:27:48.688Z,58.45
2022-10-17T12:30:21.445Z,59.37
2022-10-17T12:33:21.978Z,60.04
2022-10-17T12:35:51.903Z,58.94
2022-10-17T12:38:25.927Z,58.99
2022-10-17T12:41:04.605Z,59.74
2022-10-17T12:43:53.795Z,60.94
2022-10-17T12:46:48.440Z,61.29
2022-10-17T12:49:25.590Z,60.91
2022-10-17T12:52:22.163Z,60.12
2022-10-17T12:55:00.487Z,60.53
2022-10-17T12:57:40.743Z,60.58
2022-10-17T13:00:18.395Z,59.84
2022-10-17T13:02:49.518Z,60.37
2022-10-17T13:05:33.748Z,61.03
2022-10-17T13:08:06.461Z,60.53
2022-10-17T13:10:40.725Z,59.88
2022-10-17T13:13:18.222Z,59.82
2022-10-17T13:15:50.092Z,60.57
2022-10-17T13:18:25.087Z,61.19
2022-10-17T13:20:58.695Z,61.01
2022-10-17T13:23:30.365Z,61.66
2022-10-17T13:26:20.491Z,60.90
2022-10-17T13:29:02.869Z,61.50
2022-10-17T13:31:33.153Z,61.84
2022-10-17T13:34:04.499Z,61.06
2022-10-17T13:36:33.963Z,61.57
2022-10-17T13:39:12.377Z,61.90
2022-10-17T13:41:43.555Z,61.83
2022-10-17T13:44:16.746Z,61.62
2022-10-17T13:46:45.806Z,61.53
2022-10-17T13:49:23.188Z,62.29
2022-10-17T13:51:55.368Z,61.89
2022-10-17T13:54:40.352Z,62.69
2022-10-17T13:57:19.897Z,63.13
2022-10-17T13:59:50.565Z,63.04
2022-10-17T14:02:21.567Z,63.56
2022-10-17T14:05:18.302Z,64.27
2022-10-17T14:08:10.717Z,64.11
2022-10-17T14:10:41.268Z,65.22
2022-10-17T14:13:21.124Z,65.75
2022-10-17T14:15:49.577Z,65.60
2022-10-17T14:18:22.510Z,66.07
2022-10-17T14:23:43.864Z,66.59
2022-10-17T14:26:15.427Z,66.48
2022-10-17T14:28:46.121Z,67.48
2022-10-17T14:31:36.217Z,67.34
2022-10-17T14:34:06.660Z,66.98
2022-10-17T14:36:42.125Z,67.42
2022-10-17T14:39:21.565Z,67.54
2022-10-17T14:41:50.704Z,67.64
2022-10-17T14:44:22.831Z,68.04
2022-10-17T14:46:55.345Z,67.43
2022-10-17T14:49:34.890Z,68.34
2022-10-17T14:52:28.587Z,69.13
2022-10-17T14:54:57.922Z,69.55
2022-10-17T14:57:29.556Z,69.56
2022-10-17T14:59:58.302Z,69.79
2022-10-17T15:02:27.488Z,69.63
2022-10-17T15:04:55.841Z,69.48
2022-10-17T15:07:26.018Z,69.92
2022-10-17T15:09:54.926Z,70.87
2022-10-17T15:12:25.917Z,71.34
2022-10-17T15:14:54.857Z,71.58
2022-10-17T15:17:27.027Z,70.93
2022-10-17T15:19:55.578Z,71.49
2022-10-17T15:22:25.508Z,71.78
2022-10-17T15:24:53.665Z,72.07
2022-10-17T15:27:23.599Z,72.05
2022-10-17T15:29:53.164Z,72.14
2022-10-17T15:32:21.409Z,72.83
2022-10-17T15:34:49.477Z,73.06
2022-10-17T15:37:22.352Z,73.12
2022-10-17T15:39:54.848Z,73.37
2022-10-17T15:42:24.673Z,73.34
2022-10-17T15:44:52.744Z,73.07
2022-10-17T15:47:26.732Z,73.37
2022-10-17T15:49:55.839Z,73.45
2022-10-17T15:52:25.492Z,73.15
2022-10-17T15:54:57.312Z,73.31
2022-10-17T15:57:29.884Z,73.73
2022-10-17T16:00:00.841Z,73.67
2022-10-17T16:02:29.107Z,73.83
2022-10-17T16:04:57.232Z,74.01
2022-10-17T16:07:25.256Z,74.16
2022-10-17T16:09:54.705Z,74.10
2022-10-17T16:12:29.121Z,74.08
2022-10-17T16:14:57.441Z,74.41
2022-10-17T16:17:25.598Z,74.17
2022-10-17T16:19:53.733Z,74.86
2022-10-17T16:22:28.122Z,75.23
2022-10-17T16:24:59.490Z,75.04
2022-10-17T16:27:27.951Z,75.59
2022-10-17T16:29:55.973Z,75.36
2022-10-17T16:32:24.190Z,75.27
2022-10-17T16:34:52.310Z,75.25
2022-10-17T16:37:20.376Z,75.50
2022-10-17T16:39:52.538Z,75.73
2022-10-17T16:42:22.651Z,75.91
2022-10-17T16:44:51.413Z,76.11
2022-10-17T16:47:20.654Z,76.30
2022-10-17T16:49:48.858Z,76.50
2022-10-17T16:52:17.160Z,76.98
2022-10-17T16:54:45.433Z,77.14
2022-10-17T16:57:13.476Z,77.64
2022-10-17T16:59:43.021Z,77.86
2022-10-17T17:02:12.136Z,77.93
2022-10-17T17:04:40.394Z,78.06
2022-10-17T17:07:08.474Z,78.43
2022-10-17T17:09:36.579Z,78.85
2022-10-17T17:12:04.783Z,78.88
2022-10-17T17:14:33.175Z,79.25
2022-10-17T17:17:02.769Z,79.23
2022-10-17T17:19:30.904Z,79.66
2022-10-17T17:21:58.992Z,79.89
2022-10-17T17:24:27.029Z,80.10
2022-10-17T17:26:57.421Z,80.60
2022-10-17T17:29:26.459Z,80.58
2022-10-17T17:31:54.626Z,80.53
2022-10-17T17:34:24.092Z,80.57
2022-10-17T17:36:52.186Z,80.78
2022-10-17T17:39:20.333Z,80.40
2022-10-17T17:41:48.468Z,80.77
2022-10-17T17:44:17.153Z,80.58
2022-10-17T17:46:46.064Z,80.58
2022-10-17T17:49:14.418Z,80.52
2022-10-17T17:51:46.612Z,80.87
2022-10-17T17:54:15.316Z,80.84
2022-10-17T17:56:43.678Z,81.68
2022-10-17T17:59:14.119Z,82.68
2022-10-17T18:01:42.525Z,81.95
2022-10-17T18:04:11.171Z,82.49
2022-10-17T18:06:40.352Z,83.42
2022-10-17T18:09:10.744Z,83.12
2022-10-17T18:11:39.164Z,83.07
2022-10-17T18:14:09.017Z,83.37
2022-10-17T18:16:38.271Z,84.15
2022-10-17T18:19:09.024Z,84.26
2022-10-17T18:21:37.803Z,84.15
2022-10-17T18:24:06.958Z,85.06
2022-10-17T18:26:36.756Z,85.00
2022-10-17T18:29:05.702Z,85.44
2022-10-17T18:31:36.184Z,85.47
2022-10-17T18:34:07.032Z,85.35
2022-10-17T18:36:37.285Z,85.11
2022-10-17T18:39:06.369Z,85.68
2022-10-17T18:41:34.688Z,86.16
2022-10-17T18:44:04.629Z,86.63
2022-10-17T18:46:40.617Z,86.74
2022-10-17T18:49:11.395Z,87.12
2022-10-17T18:51:39.859Z,87.69
2022-10-17T18:54:12.478Z,87.97
2022-10-17T18:56:40.677Z,87.68
2022-10-17T18:59:10.383Z,87.39
2022-10-17T19:01:38.782Z,87.14
2022-10-17T19:04:06.947Z,87.46
2022-10-17T19:06:35.114Z,87.26
2022-10-17T19:09:05.248Z,87.67
2022-10-17T19:11:35.104Z,87.72
2022-10-17T19:14:05.902Z,88.09
2022-10-17T19:16:38.761Z,88.09
2022-10-17T19:19:09.131Z,88.22
2022-10-17T19:21:37.247Z,88.03
2022-10-17T19:24:08.000Z,88.35
2022-10-17T19:26:37.807Z,87.98
2022-10-17T19:29:07.088Z,88.43
2022-10-17T19:31:37.300Z,88.29
2022-10-17T19:34:05.525Z,88.31
2022-10-17T19:36:35.673Z,88.54
2022-10-17T19:39:06.261Z,88.57
2022-10-17T19:41:36.073Z,88.28
2022-10-17T19:44:06.472Z,88.55
2022-10-17T19:46:36.295Z,88.91
2022-10-17T19:49:05.502Z,89.39
2022-10-17T19:51:34.091Z,89.24
2022-10-17T19:54:02.789Z,89.47
2022-10-17T19:56:33.938Z,89.08
2022-10-17T19:59:02.615Z,89.50
2022-10-17T20:01:33.410Z,89.61
2022-10-17T20:04:03.475Z,89.97
2022-10-17T20:06:31.840Z,90.01
2022-10-17T20:09:00.237Z,89.87
2022-10-17T20:11:30.049Z,89.68
2022-10-17T20:13:58.923Z,89.87
2022-10-17T20:16:29.662Z,89.39
2022-10-17T20:19:08.379Z,89.61
2022-10-17T20:21:39.492Z,89.60
2022-10-17T20:24:10.098Z,89.81
2022-10-17T20:26:39.801Z,90.12
2022-10-17T20:29:11.223Z,89.96
2022-10-17T20:31:40.622Z,89.92
2022-10-17T20:34:13.265Z,90.11
2022-10-17T20:36:41.521Z,90.25
2022-10-17T20:39:11.275Z,90.61
2022-10-17T20:41:39.623Z,90.60
2022-10-17T20:44:08.030Z,90.70
2022-10-17T20:46:41.577Z,90.80
2022-10-17T20:49:16.352Z,90.53
2022-10-17T20:51:44.970Z,90.31
2022-10-17T20:54:13.511Z,90.52
2022-10-17T20:56:41.626Z,90.39
2022-10-17T20:59:13.788Z,90.96
2022-10-17T21:01:42.271Z,90.45
2022-10-17T21:04:40.706Z,89.89
2022-10-17T21:07:00.412Z,90.29
2022-10-17T21:09:28.603Z,89.76
2022-10-17T21:11:56.962Z,89.74
2022-10-17T21:14:26.171Z,89.51
2022-10-17T21:16:54.585Z,90.00
2022-10-17T21:19:23.005Z,90.45
2022-10-17T21:21:51.866Z,90.55
2022-10-17T21:24:21.401Z,90.05
2022-10-17T21:26:55.584Z,89.50
2022-10-17T21:29:24.775Z,89.71
2022-10-17T21:31:53.736Z,90.02
2022-10-17T21:34:24.670Z,89.65
2022-10-17T21:36:53.657Z,88.91
2022-10-17T21:39:24.894Z,89.22
2022-10-17T21:41:53.486Z,88.65
2022-10-17T21:44:25.110Z,88.65
2022-10-17T21:46:54.132Z,88.57
2022-10-17T21:49:24.283Z,88.51
2022-10-17T21:51:53.329Z,88.47
2022-10-17T21:54:24.245Z,88.38
2022-10-17T21:56:52.736Z,87.94
2022-10-17T21:59:21.031Z,87.72
2022-10-17T22:01:49.194Z,87.67
2022-10-17T22:04:19.405Z,87.13
2022-10-17T22:06:51.243Z,86.51
2022-10-17T22:09:24.589Z,85.77
2022-10-17T22:11:55.843Z,85.69
2022-10-17T22:14:25.724Z,85.66
2022-10-17T22:16:53.931Z,85.74
2022-10-17T22:19:24.549Z,85.42
2022-10-17T22:21:52.810Z,85.25
2022-10-17T22:24:23.535Z,85.23
2022-10-17T22:26:51.943Z,85.14
2022-10-17T22:29:20.297Z,85.63
2022-10-17T22:31:48.876Z,85.34
2022-10-17T22:34:18.454Z,85.15
2022-10-17T22:36:47.834Z,84.62
2022-10-17T22:39:16.231Z,84.29
2022-10-17T22:41:45.851Z,84.17
2022-10-17T22:44:14.135Z,84.62
2022-10-17T22:46:42.316Z,84.48
2022-10-17T22:49:10.542Z,84.43
2022-10-17T22:51:38.770Z,84.35
2022-10-17T22:54:06.978Z,84.12
2022-10-17T22:56:35.084Z,83.66
2022-10-17T22:59:04.919Z,83.96
2022-10-17T23:01:33.225Z,83.39
2022-10-17T23:04:01.480Z,82.73
2022-10-17T23:06:29.683Z,82.93
2022-10-17T23:08:57.827Z,83.34
2022-10-17T23:11:26.125Z,83.19
2022-10-17T23:13:54.217Z,83.11
2022-10-17T23:16:23.720Z,82.46
2022-10-17T23:18:51.838Z,82.58
2022-10-17T23:21:20.053Z,82.24
2022-10-17T23:23:48.137Z,81.30
2022-10-17T23:26:16.408Z,81.28
2022-10-17T23:28:44.793Z,80.74
2022-10-17T23:31:16.686Z,80.85
2022-10-17T23:33:47.531Z,80.25
2022-10-17T23:36:17.441Z,79.54
2022-10-17T23:38:46.941Z,79.47
2022-10-17T23:41:15.988Z,79.59
2022-10-17T23:43:44.709Z,79.96
2022-10-17T23:46:13.962Z,80.63
2022-10-17T23:48:42.440Z,80.44
2022-10-17T23:51:12.671Z,80.64
2022-10-17T23:53:41.742Z,80.61
2022-10-17T23:56:11.489Z,80.64
2022-10-17T23:58:40.154Z,81.05
